Time;durP1;ratioP1;P1;durP2;ratioP2;P2;SDS_P1;SDS_P2;PMS_P1;PMS_P2;Temp;Humidity;BMP_temperature;BMP_pressure;BME280_temperature;BME280_humidity;BME280_pressure;Samples;Min_cycle;Max_cycle;Signal;HPM_P1;HPM_P2
2022/08/19 04:01:32;;;;;;;14.60;13.20;;;17.90;96.30;;;;;;5428227;23;20503;-78
2022/08/19 04:03:59;;;;;;;34.73;14.80;;;17.90;96.30;;;;;;4976225;28;20422;-79
2022/08/19 04:06:30;;;;;;;17.33;15.43;;;17.90;96.30;;;;;;4960782;28;20210;-78
2022/08/19 04:08:57;;;;;;;21.30;16.90;;;17.90;96.30;;;;;;4939440;29;20462;-78
2022/08/19 04:11:29;;;;;;;20.47;18.43;;;17.90;96.30;;;;;;4956987;28;20525;-79
2022/08/19 04:13:55;;;;;;;22.60;18.80;;;17.90;96.30;;;;;;4958569;29;20866;-79
2022/08/19 04:16:22;;;;;;;19.90;17.90;;;17.90;96.30;;;;;;4965028;29;20422;-81
2022/08/19 04:18:49;;;;;;;15.27;13.70;;;17.90;96.30;;;;;;4974387;28;20927;-82
2022/08/19 04:21:20;;;;;;;27.83;18.97;;;17.90;96.30;;;;;;4982295;28;20495;-82
2022/08/19 04:23:46;;;;;;;20.77;18.77;;;17.90;96.30;;;;;;4964313;28;20434;-82
2022/08/19 04:26:24;;;;;;;22.43;20.00;;;18.00;96.30;;;;;;4963942;28;20432;-81
2022/08/19 04:28:51;;;;;;;22.67;20.27;;;18.00;96.30;;;;;;4981063;28;20401;-82
2022/08/19 04:31:19;;;;;;;22.43;18.90;;;18.00;96.30;;;;;;4963087;28;20504;-81
2022/08/19 04:33:45;;;;;;;19.03;17.13;;;18.00;96.30;;;;;;4980851;28;20471;-81
2022/08/19 04:36:22;;;;;;;21.33;19.33;;;18.00;96.30;;;;;;4948201;29;20431;-81
2022/08/19 04:38:49;;;;;;;24.13;21.63;;;18.00;96.30;;;;;;4942651;29;20179;-80
2022/08/19 04:43:59;;;;;;;30.23;23.40;;;18.00;96.30;;;;;;4979893;28;20461;-81
2022/08/19 04:46:25;;;;;;;37.13;24.53;;;18.00;96.30;;;;;;4979448;28;20466;-80
2022/08/19 04:48:50;;;;;;;32.50;23.07;;;18.00;96.30;;;;;;4979236;28;20186;-81
2022/08/19 04:51:16;;;;;;;28.93;22.80;;;18.00;96.30;;;;;;4961730;28;20190;-80
2022/08/19 04:53:42;;;;;;;28.10;19.93;;;18.00;96.30;;;;;;4979015;28;20652;-81
2022/08/19 04:56:11;;;;;;;20.33;18.20;;;18.00;96.30;;;;;;4961608;28;20450;-81
2022/08/19 04:58:38;;;;;;;16.17;13.77;;;18.00;96.30;;;;;;4978697;28;20170;-80
2022/08/19 05:01:04;;;;;;;13.30;12.07;;;18.00;96.30;;;;;;4962330;28;20457;-81
2022/08/19 05:03:33;;;;;;;10.43;9.37;;;18.00;96.30;;;;;;4961959;28;20405;-81
2022/08/19 05:06:07;;;;;;;9.87;8.87;;;18.00;96.30;;;;;;4961825;28;20221;-81
2022/08/19 05:08:33;;;;;;;10.00;9.00;;;18.00;96.30;;;;;;4978161;28;20472;-81
2022/08/19 05:10:59;;;;;;;11.87;10.67;;;18.00;96.30;;;;;;4942730;29;20443;-81
2022/08/19 05:13:26;;;;;;;11.43;10.33;;;18.00;96.30;;;;;;4959588;29;20406;-81
2022/08/19 05:15:58;;;;;;;13.00;11.70;;;18.00;96.30;;;;;;4959495;29;20434;-81
2022/08/19 05:23:56;;;;;;;11.20;10.07;;;18.10;96.30;;;;;;4959797;29;20438;-81
2022/08/19 05:26:21;;;;;;;11.60;10.40;;;18.10;96.30;;;;;;4959417;29;20879;-81
2022/08/19 05:28:47;;;;;;;11.43;10.33;;;18.10;96.30;;;;;;4941706;29;20262;-81
2022/08/19 05:31:12;;;;;;;10.30;9.30;;;18.10;96.30;;;;;;4957566;28;20198;-81
2022/08/19 05:33:39;;;;;;;10.83;9.83;;;18.10;96.30;;;;;;4941251;29;20179;-81
2022/08/19 05:36:07;;;;;;;11.00;9.87;;;18.10;96.30;;;;;;4958753;29;20174;-81
2022/08/19 05:38:33;;;;;;;11.33;10.30;;;18.10;96.30;;;;;;4940748;29;20794;-80
2022/08/19 05:40:59;;;;;;;15.33;10.60;;;18.10;96.30;;;;;;4966971;28;20526;-78
2022/08/19 05:43:25;;;;;;;14.50;10.77;;;18.10;96.30;;;;;;4974533;28;20496;-79
2022/08/19 05:45:51;;;;;;;10.63;9.63;;;18.10;96.30;;;;;;4974604;28;20175;-79
2022/08/19 05:48:20;;;;;;;10.47;9.47;;;18.20;96.30;;;;;;4974916;28;20500;-79
2022/08/19 05:50:46;;;;;;;10.70;9.57;;;18.20;96.30;;;;;;4976021;28;20197;-80
2022/08/19 05:53:12;;;;;;;11.87;10.53;;;18.20;96.30;;;;;;4977948;28;20432;-81
2022/08/19 05:55:40;;;;;;;10.93;9.87;;;18.30;96.30;;;;;;4977697;28;21097;-80
2022/08/19 05:58:07;;;;;;;10.13;8.83;;;18.30;96.30;;;;;;4959521;28;20189;-81
2022/08/19 06:00:33;;;;;;;12.10;10.90;;;18.30;96.30;;;;;;4975365;28;20871;-80
2022/08/19 06:03:02;;;;;;;11.43;10.23;;;18.30;96.30;;;;;;4976525;28;20465;-79
2022/08/19 06:05:29;;;;;;;14.37;11.20;;;18.30;96.30;;;;;;4976686;28;20418;-79
2022/08/19 06:07:54;;;;;;;12.63;10.33;;;18.30;96.30;;;;;;4975905;28;20949;-82
2022/08/19 06:10:21;;;;;;;18.37;12.27;;;18.30;96.30;;;;;;4942483;28;20458;-79
2022/08/19 06:12:47;;;;;;;18.10;12.20;;;18.30;96.30;;;;;;4941377;28;20167;-82
2022/08/19 06:15:14;;;;;;;13.43;11.90;;;18.30;96.30;;;;;;4951716;28;20430;-82
2022/08/19 06:17:41;;;;;;;14.03;12.53;;;18.30;96.30;;;;;;4965556;28;20674;-82
2022/08/19 06:20:11;;;;;;;15.80;13.00;;;18.30;96.30;;;;;;4964419;28;20429;-82
2022/08/19 06:22:51;;;;;;;18.53;12.73;;;18.30;96.30;;;;;;4958651;28;20421;-82
2022/08/19 06:25:17;;;;;;;14.37;11.53;;;18.30;96.30;;;;;;4975683;28;21140;-82
2022/08/19 06:27:43;;;;;;;15.60;12.23;;;18.30;96.30;;;;;;4975971;28;20973;-82
2022/08/19 06:30:11;;;;;;;13.70;12.30;;;18.30;96.30;;;;;;4960518;28;20458;-81
2022/08/19 06:32:37;;;;;;;15.10;12.70;;;18.30;96.30;;;;;;4961516;28;20418;-81
2022/08/19 06:35:03;;;;;;;15.07;13.20;;;18.30;96.30;;;;;;4978706;28;20410;-81
2022/08/19 06:37:28;;;;;;;19.00;14.50;;;18.30;96.30;;;;;;4978202;28;20417;-82
2022/08/19 06:39:54;;;;;;;23.73;14.53;;;18.30;96.30;;;;;;4974546;28;20181;-80
2022/08/19 06:42:19;;;;;;;22.80;15.07;;;18.30;96.30;;;;;;4976952;28;20239;-81
2022/08/19 06:44:48;;;;;;;23.30;15.23;;;18.30;96.30;;;;;;4959902;28;20189;-82
2022/08/19 06:47:18;;;;;;;25.67;17.37;;;18.30;96.30;;;;;;4957437;28;20341;-80
2022/08/19 06:49:44;;;;;;;28.30;18.63;;;18.20;96.30;;;;;;4972802;28;20417;-77
2022/08/19 06:52:14;;;;;;;38.43;20.20;;;18.20;96.30;;;;;;4955652;28;20441;-79
2022/08/19 06:54:41;;;;;;;38.03;20.97;;;18.20;96.30;;;;;;4973764;28;20159;-83
2022/08/19 06:57:08;;;;;;;32.97;19.50;;;18.30;96.30;;;;;;4956135;28;20484;-78
2022/08/19 06:59:34;;;;;;;34.33;19.43;;;18.30;96.30;;;;;;4972995;28;20417;-81
2022/08/19 07:02:05;;;;;;;37.20;19.23;;;18.30;96.30;;;;;;4972905;28;20987;-82
2022/08/19 07:04:32;;;;;;;29.67;21.00;;;18.30;96.30;;;;;;4955993;28;20178;-83
2022/08/19 07:07:07;;;;;;;30.30;19.73;;;18.40;96.30;;;;;;4955983;28;20552;-78
2022/08/19 07:09:33;;;;;;;27.37;19.50;;;18.40;96.30;;;;;;4972417;28;20769;-80
2022/08/19 07:11:59;;;;;;;22.10;19.43;;;18.50;96.30;;;;;;4973635;28;20449;-78
2022/08/19 07:14:26;;;;;;;24.20;18.20;;;18.50;96.30;;;;;;4956377;28;20425;-79
2022/08/19 07:16:55;;;;;;;21.03;17.83;;;18.60;96.30;;;;;;4973415;28;20257;-79
2022/08/19 07:19:24;;;;;;;22.87;17.93;;;18.80;96.30;;;;;;4973289;28;20472;-82
2022/08/19 07:21:52;;;;;;;25.60;18.70;;;18.90;96.30;;;;;;4973032;28;20520;-79
2022/08/19 07:24:19;;;;;;;21.47;17.37;;;19.00;96.30;;;;;;4973307;28;20841;-78
2022/08/19 07:26:45;;;;;;;19.17;16.93;;;19.10;96.30;;;;;;4973409;28;20465;-79
2022/08/19 07:29:11;;;;;;;24.73;18.30;;;19.10;96.30;;;;;;4968127;28;20436;-79
2022/08/19 07:31:37;;;;;;;21.57;17.37;;;19.10;96.30;;;;;;4953857;28;20802;-79
2022/08/19 07:34:08;;;;;;;20.87;17.40;;;19.20;96.30;;;;;;4972771;28;20426;-78
2022/08/19 07:36:36;;;;;;;22.57;17.60;;;19.20;96.30;;;;;;4988884;28;20223;-80
2022/08/19 07:39:07;;;;;;;19.53;15.77;;;19.20;96.30;;;;;;4992400;28;20416;-79
2022/08/19 07:41:34;;;;;;;23.37;16.07;;;19.40;96.30;;;;;;4976845;28;20442;-79
2022/08/19 07:44:03;;;;;;;17.37;15.60;;;19.50;96.30;;;;;;4962250;28;20481;-79
2022/08/19 07:46:31;;;;;;;15.57;14.00;;;19.50;96.30;;;;;;4973056;28;20468;-79
2022/08/19 07:48:57;;;;;;;16.00;13.67;;;19.40;96.30;;;;;;4972546;28;20449;-80
2022/08/19 07:51:22;;;;;;;14.50;12.93;;;19.50;96.30;;;;;;4972959;28;20775;-79
2022/08/19 07:53:50;;;;;;;18.83;14.20;;;19.60;96.30;;;;;;4973058;28;20416;-78
2022/08/19 07:56:16;;;;;;;16.00;12.30;;;19.60;96.30;;;;;;4980732;28;20174;-78
2022/08/19 07:58:45;;;;;;;15.37;13.03;;;19.60;96.30;;;;;;4965914;28;20928;-78
2022/08/19 08:01:15;;;;;;;22.50;14.63;;;19.70;96.30;;;;;;4956929;29;21039;-78
2022/08/19 08:09:20;;;;;;;20.97;17.07;;;19.60;96.30;;;;;;4956961;29;20519;-78
2022/08/19 08:11:56;;;;;;;26.80;18.07;;;19.60;96.30;;;;;;4957199;29;20434;-79
2022/08/19 08:14:28;;;;;;;27.50;18.23;;;19.90;96.30;;;;;;4956986;29;20429;-78
2022/08/19 08:16:54;;;;;;;23.93;18.00;;;19.90;96.30;;;;;;4958291;29;20406;-82
2022/08/19 08:19:23;;;;;;;23.70;17.20;;;19.90;96.30;;;;;;4939693;29;20430;-79
2022/08/19 08:21:51;;;;;;;22.13;18.10;;;20.00;96.30;;;;;;4956763;29;20207;-79
2022/08/19 08:24:17;;;;;;;22.63;17.67;;;20.10;96.30;;;;;;4957250;29;20426;-79
2022/08/19 08:26:46;;;;;;;21.13;16.67;;;20.00;96.30;;;;;;4956980;29;20462;-78
2022/08/19 08:29:12;;;;;;;21.23;15.37;;;20.00;96.30;;;;;;4957295;29;20415;-80
2022/08/19 08:31:40;;;;;;;12.60;10.03;;;19.90;96.30;;;;;;4957433;29;20439;-79
2022/08/19 08:34:05;;;;;;;10.73;9.37;;;19.60;96.30;;;;;;4956544;29;20182;-77
2022/08/19 08:36:33;;;;;;;14.17;12.33;;;19.50;96.30;;;;;;4956501;29;20414;-77
2022/08/19 08:38:59;;;;;;;13.93;11.40;;;19.30;96.30;;;;;;4955897;29;20225;-78
2022/08/19 08:41:50;;;;;;;19.57;15.30;;;19.20;96.30;;;;;;4951843;28;20477;-77
2022/08/19 08:44:27;;;;;;;19.30;17.23;;;19.10;96.30;;;;;;4975765;28;20474;-77
2022/08/19 08:46:57;;;;;;;22.33;18.93;;;19.00;96.30;;;;;;4957945;28;20830;-77
2022/08/19 08:49:40;;;;;;;34.10;20.40;;;19.10;96.30;;;;;;4976371;28;20413;-81
2022/08/19 08:52:21;;;;;;;22.97;19.67;;;19.10;96.30;;;;;;4979221;28;20434;-82
2022/08/19 08:54:49;;;;;;;24.40;18.20;;;19.10;96.30;;;;;;4960871;28;20409;-82
2022/08/19 08:57:27;;;;;;;22.07;19.13;;;19.10;96.30;;;;;;4976513;28;20441;-83
2022/08/19 08:59:54;;;;;;;20.90;18.70;;;19.20;96.30;;;;;;4957804;28;20485;-84
2022/08/19 09:02:20;;;;;;;25.20;19.97;;;19.20;96.30;;;;;;4957839;28;20883;-84
2022/08/19 09:04:46;;;;;;;25.67;21.67;;;19.20;96.30;;;;;;4957974;28;20434;-84
2022/08/19 09:07:41;;;;;;;23.70;20.50;;;19.40;96.30;;;;;;4974124;28;20297;-84
2022/08/19 09:10:39;;;;;;;31.27;22.70;;;19.60;96.30;;;;;;4957432;28;20170;-84
2022/08/19 09:13:34;;;;;;;24.90;21.13;;;19.70;96.30;;;;;;4975194;28;20426;-84
2022/08/19 09:16:08;;;;;;;20.53;18.43;;;19.60;96.30;;;;;;4957837;28;20414;-85
2022/08/19 09:18:43;;;;;;;23.20;20.90;;;19.60;96.30;;;;;;4958598;28;20404;-81
2022/08/19 09:21:09;;;;;;;21.90;19.70;;;19.60;96.30;;;;;;4977211;28;20429;-82
2022/08/19 09:23:36;;;;;;;23.20;20.80;;;19.70;96.30;;;;;;4961866;28;20424;-79
2022/08/19 09:26:08;;;;;;;28.80;22.93;;;19.70;96.30;;;;;;4979155;28;20177;-81
2022/08/19 09:28:33;;;;;;;30.70;22.33;;;19.70;96.30;;;;;;4977573;28;20484;-81
2022/08/19 09:31:00;;;;;;;25.53;21.90;;;19.60;96.30;;;;;;4979096;28;20473;-82
2022/08/19 09:33:25;;;;;;;26.27;21.47;;;19.40;96.30;;;;;;4978222;28;20970;-82
2022/08/19 09:36:03;;;;;;;22.97;19.20;;;19.30;96.30;;;;;;4977891;28;20174;-82
2022/08/19 09:38:28;;;;;;;21.37;18.53;;;19.40;96.30;;;;;;4976500;28;20165;-82
2022/08/19 09:40:53;;;;;;;23.20;18.67;;;19.30;96.30;;;;;;4956782;28;20496;-81
2022/08/19 09:43:19;;;;;;;20.10;18.20;;;19.30;96.30;;;;;;4976317;28;20206;-81
2022/08/19 09:45:45;;;;;;;21.33;19.20;;;19.30;96.30;;;;;;4959829;28;20171;-81
2022/08/19 09:48:10;;;;;;;20.53;18.53;;;19.60;96.30;;;;;;4977470;28;20686;-81
2022/08/19 09:50:38;;;;;;;20.37;17.60;;;19.80;96.30;;;;;;4977427;28;20187;-81
2022/08/19 09:53:05;;;;;;;23.93;19.13;;;20.20;96.30;;;;;;4978041;28;20174;-81
2022/08/19 09:55:30;;;;;;;22.03;19.83;;;20.70;96.30;;;;;;4979042;28;20402;-79
2022/08/19 09:57:56;;;;;;;22.97;20.27;;;21.10;96.30;;;;;;4976482;28;20406;-81
2022/08/19 10:00:21;;;;;;;22.50;20.03;;;21.40;96.30;;;;;;4977552;28;20185;-80
2022/08/19 10:02:47;;;;;;;22.60;20.10;;;21.50;96.30;;;;;;4959818;28;20170;-82
2022/08/19 10:05:54;;;;;;;19.60;17.80;;;21.90;96.30;;;;;;4976023;28;20190;-82
2022/08/19 10:08:01;;;;;;;20.60;18.70;;;22.10;96.30;;;;;;4968337;28;20222;-82
2022/08/19 10:10:27;;;;;;;20.03;17.97;;;22.20;96.30;;;;;;4975355;28;20505;-82
2022/08/19 10:12:52;;;;;;;20.67;18.27;;;22.20;96.30;;;;;;4977183;28;20182;-82
2022/08/19 10:15:20;;;;;;;19.00;17.00;;;21.80;96.30;;;;;;4976020;28;20253;-82
2022/08/19 10:17:46;;;;;;;20.83;17.57;;;21.60;96.30;;;;;;4958483;28;20197;-82
2022/08/19 10:20:12;;;;;;;19.20;17.37;;;21.50;96.30;;;;;;4975190;28;20509;-82
2022/08/19 10:22:37;;;;;;;20.67;16.93;;;21.20;96.30;;;;;;4975348;28;20182;-83
2022/08/19 10:25:04;;;;;;;19.00;15.77;;;21.00;96.30;;;;;;4951852;29;20722;-79
2022/08/19 10:27:30;;;;;;;20.83;18.77;;;20.90;96.30;;;;;;4954416;29;20199;-79
2022/08/19 10:29:56;;;;;;;22.00;17.83;;;20.90;96.30;;;;;;4954227;29;20415;-83
2022/08/19 10:32:21;;;;;;;19.90;18.03;;;21.10;96.30;;;;;;4954877;28;21262;-80
2022/08/19 10:34:48;;;;;;;20.03;17.93;;;21.20;96.30;;;;;;4938092;29;20167;-80
2022/08/19 10:37:15;;;;;;;18.30;16.53;;;21.30;96.30;;;;;;4954810;29;20182;-80
2022/08/19 10:39:40;;;;;;;21.00;16.97;;;21.40;96.30;;;;;;4954585;29;20418;-82
2022/08/19 10:42:07;;;;;;;18.77;17.03;;;21.30;96.30;;;;;;4973348;28;20802;-80
2022/08/19 10:44:35;;;;;;;15.73;14.13;;;21.20;96.30;;;;;;4974416;28;20180;-80
2022/08/19 10:47:01;;;;;;;19.37;16.17;;;21.00;96.30;;;;;;4974282;28;20457;-81
2022/08/19 10:49:27;;;;;;;17.90;16.10;;;20.70;96.30;;;;;;4981113;28;20414;-81
2022/08/19 10:57:23;;;;;;;19.63;17.57;;;20.40;96.30;;;;;;4979129;28;20485;-81
2022/08/19 10:59:49;;;;;;;20.73;17.57;;;20.60;96.30;;;;;;4978189;28;20418;-81
2022/08/19 11:02:15;;;;;;;20.40;18.40;;;20.80;96.30;;;;;;4977989;28;20465;-82
2022/08/19 11:04:40;;;;;;;22.37;17.33;;;20.90;96.30;;;;;;4975825;28;20182;-82
2022/08/19 11:07:07;;;;;;;21.37;18.90;;;21.00;96.30;;;;;;4976488;28;20202;-80
2022/08/19 11:09:41;;;;;;;20.17;18.07;;;21.00;96.30;;;;;;4949154;29;20233;-80
2022/08/19 11:12:07;;;;;;;21.73;18.03;;;20.80;96.30;;;;;;4957232;28;20947;-81
2022/08/19 11:14:34;;;;;;;23.17;18.00;;;20.70;96.30;;;;;;4956820;28;20418;-80
2022/08/19 11:17:00;;;;;;;18.90;17.20;;;20.70;96.30;;;;;;4957109;29;20835;-81
2022/08/19 11:19:26;;;;;;;19.73;17.83;;;20.90;96.30;;;;;;4955817;29;20851;-80
2022/08/19 11:21:53;;;;;;;19.70;17.97;;;21.00;96.30;;;;;;4955957;28;20928;-81
2022/08/19 11:24:23;;;;;;;17.83;15.93;;;21.10;96.30;;;;;;4956690;29;20182;-81
2022/08/19 11:26:50;;;;;;;18.10;16.27;;;21.00;96.30;;;;;;4957607;29;20564;-80
2022/08/19 11:29:19;;;;;;;20.03;16.47;;;20.80;96.30;;;;;;4946241;28;20455;-82
2022/08/19 11:31:47;;;;;;;21.17;17.17;;;20.70;96.30;;;;;;4978006;28;20426;-80
2022/08/19 11:34:18;;;;;;;17.50;15.70;;;20.70;96.30;;;;;;4978046;28;20418;-80
2022/08/19 11:36:47;;;;;;;16.73;15.07;;;20.70;96.30;;;;;;4974339;28;20406;-81
2022/08/19 11:39:16;;;;;;;19.40;17.37;;;20.80;96.30;;;;;;4980217;28;20425;-80
2022/08/19 11:41:41;;;;;;;19.87;17.70;;;20.80;96.30;;;;;;4976994;28;20965;-79
2022/08/19 11:44:07;;;;;;;19.57;17.40;;;20.70;96.30;;;;;;4971459;28;20444;-80
2022/08/19 11:46:35;;;;;;;23.10;16.50;;;20.80;96.30;;;;;;4966170;28;20205;-79
2022/08/19 11:49:02;;;;;;;21.53;18.03;;;21.10;96.30;;;;;;4965956;28;20195;-80
2022/08/19 11:51:29;;;;;;;22.83;18.13;;;21.40;96.30;;;;;;4950525;28;20581;-80
2022/08/19 11:53:56;;;;;;;25.10;22.40;;;21.60;96.30;;;;;;4967229;28;20425;-77
2022/08/19 11:56:23;;;;;;;27.83;25.00;;;21.50;96.30;;;;;;4966579;28;20429;-78
2022/08/19 11:58:49;;;;;;;32.80;27.43;;;21.20;96.30;;;;;;4966447;28;20422;-78
2022/08/19 12:01:18;;;;;;;33.87;29.43;;;21.00;96.30;;;;;;4971996;28;20480;-78
2022/08/19 12:03:45;;;;;;;45.50;29.27;;;20.80;96.30;;;;;;4983540;28;20179;-80
2022/08/19 12:06:14;;;;;;;34.57;28.97;;;20.70;96.30;;;;;;4964526;28;20775;-80
2022/08/19 12:08:41;;;;;;;35.27;29.30;;;20.60;96.30;;;;;;4978779;28;20464;-80
2022/08/19 12:11:10;;;;;;;31.23;27.87;;;20.50;96.30;;;;;;4977514;28;20529;-80
2022/08/19 12:13:37;;;;;;;33.77;25.93;;;20.50;96.30;;;;;;4976979;28;20417;-82
2022/08/19 12:16:15;;;;;;;27.53;24.63;;;20.40;96.30;;;;;;4959556;28;20421;-81
2022/08/19 12:18:45;;;;;;;25.43;22.83;;;20.50;96.30;;;;;;4975382;28;20956;-80
2022/08/19 12:21:13;;;;;;;27.80;24.07;;;20.50;96.30;;;;;;4958958;28;20545;-79
2022/08/19 12:23:39;;;;;;;26.80;23.27;;;20.40;96.30;;;;;;4976622;28;20829;-79
2022/08/19 12:26:05;;;;;;;25.90;23.10;;;20.40;96.30;;;;;;4975950;28;20485;-79
2022/08/19 12:28:30;;;;;;;27.90;23.27;;;20.30;96.30;;;;;;4975495;28;20879;-79
2022/08/19 12:30:56;;;;;;;26.90;22.20;;;20.00;96.30;;;;;;4975970;28;20843;-78
2022/08/19 12:33:25;;;;;;;26.90;23.60;;;19.90;96.30;;;;;;4975579;28;20179;-78
2022/08/19 12:35:51;;;;;;;34.00;25.60;;;19.80;96.30;;;;;;4975685;28;20604;-78
2022/08/19 12:38:17;;;;;;;32.03;28.57;;;19.60;96.30;;;;;;4974977;28;20426;-78
2022/08/19 12:40:47;;;;;;;37.77;29.67;;;19.50;96.30;;;;;;4958198;28;20784;-79
2022/08/19 12:43:15;;;;;;;40.03;33.60;;;19.30;96.30;;;;;;4959373;28;20429;-78
2022/08/19 12:45:41;;;;;;;44.53;30.97;;;19.30;96.30;;;;;;4975283;28;20510;-78
2022/08/19 12:48:07;;;;;;;45.73;32.83;;;19.20;96.30;;;;;;4939710;29;20502;-79
2022/08/19 12:50:33;;;;;;;45.57;33.30;;;19.00;96.30;;;;;;4973562;28;20857;-80
2022/08/19 12:52:58;;;;;;;42.30;31.23;;;18.90;96.30;;;;;;4959016;28;20635;-80
2022/08/19 12:55:24;;;;;;;42.90;33.27;;;18.80;96.30;;;;;;4975656;28;20305;-80
2022/08/19 12:57:50;;;;;;;40.60;31.33;;;18.80;96.30;;;;;;4976364;28;20178;-80
2022/08/19 13:00:20;;;;;;;47.43;33.77;;;18.70;96.30;;;;;;4959608;28;20421;-80
2022/08/19 13:02:49;;;;;;;39.17;33.00;;;18.60;96.30;;;;;;4960457;28;20616;-80
2022/08/19 13:05:19;;;;;;;48.20;34.17;;;18.60;96.30;;;;;;4960022;28;20429;-80
2022/08/19 13:07:45;;;;;;;48.03;36.47;;;18.60;96.30;;;;;;4976241;28;20536;-80
2022/08/19 13:10:15;;;;;;;49.00;35.37;;;18.60;96.30;;;;;;4975130;28;20445;-80
2022/08/19 13:12:41;;;;;;;52.57;36.47;;;18.70;96.30;;;;;;4959263;28;20197;-80
2022/08/19 13:15:08;;;;;;;77.00;35.63;;;18.70;96.30;;;;;;4959344;28;20514;-80
2022/08/19 13:17:35;;;;;;;70.90;36.90;;;18.70;96.30;;;;;;4958754;28;20513;-80
2022/08/19 13:20:01;;;;;;;70.13;35.97;;;18.60;96.30;;;;;;4957519;28;20496;-80
2022/08/19 13:22:26;;;;;;;89.83;34.90;;;18.60;96.30;;;;;;4975393;28;20524;-80
2022/08/19 13:24:52;;;;;;;102.33;35.53;;;18.50;96.30;;;;;;4957813;28;20425;-79
2022/08/19 13:27:18;;;;;;;86.37;37.17;;;18.60;96.30;;;;;;4958263;28;20281;-80
2022/08/19 13:35:14;;;;;;;50.97;35.73;;;18.50;96.30;;;;;;4975634;28;20490;-79
2022/08/19 13:37:43;;;;;;;42.77;34.63;;;18.50;96.30;;;;;;4975394;28;20498;-79
2022/08/19 13:40:23;;;;;;;57.40;36.30;;;18.50;96.30;;;;;;4974747;28;21085;-80
2022/08/19 13:42:51;;;;;;;49.50;36.90;;;18.60;96.30;;;;;;4976256;28;20409;-80
2022/08/19 13:45:20;;;;;;;50.10;36.93;;;18.70;96.30;;;;;;4976349;28;20497;-80
2022/08/19 13:47:47;;;;;;;48.80;34.20;;;18.70;96.30;;;;;;4958398;28;20465;-80
2022/08/19 13:50:16;;;;;;;45.47;34.97;;;18.80;96.30;;;;;;4956725;28;20911;-78
2022/08/19 13:52:42;;;;;;;51.67;38.77;;;18.90;96.30;;;;;;4973606;28;20414;-79
2022/08/19 13:55:09;;;;;;;50.17;39.20;;;18.80;96.30;;;;;;4974511;28;20505;-78
2022/08/19 13:57:35;;;;;;;50.83;40.40;;;18.80;96.30;;;;;;4974366;28;20634;-81
2022/08/19 14:00:03;;;;;;;55.80;38.00;;;18.80;96.30;;;;;;4974773;28;20542;-82
2022/08/19 14:02:28;;;;;;;54.93;40.73;;;18.80;96.30;;;;;;4974810;28;20823;-80
2022/08/19 14:04:54;;;;;;;58.47;42.80;;;18.90;96.30;;;;;;4974726;28;20504;-80
2022/08/19 14:07:20;;;;;;;59.70;41.57;;;18.90;96.30;;;;;;4957310;28;20198;-80
2022/08/19 14:09:45;;;;;;;57.03;42.50;;;18.90;96.30;;;;;;4973867;28;20189;-82
2022/08/19 14:12:10;;;;;;;61.53;42.70;;;18.90;96.30;;;;;;4975189;28;20194;-81
2022/08/19 14:14:37;;;;;;;61.23;40.33;;;18.90;96.30;;;;;;4958450;28;20170;-79
2022/08/19 14:17:06;;;;;;;56.83;39.77;;;18.80;96.30;;;;;;4957468;28;20290;-80
2022/08/19 14:19:32;;;;;;;71.17;41.70;;;18.80;96.30;;;;;;4973798;28;20845;-79
2022/08/19 14:21:57;;;;;;;61.57;44.30;;;18.70;96.30;;;;;;4974260;28;20918;-79
2022/08/19 14:24:23;;;;;;;75.93;42.50;;;18.70;96.30;;;;;;4974301;28;20171;-80
2022/08/19 14:26:48;;;;;;;61.83;41.43;;;18.70;96.30;;;;;;4973406;28;20202;-78
2022/08/19 14:29:14;;;;;;;58.33;43.73;;;18.70;96.30;;;;;;4973881;28;20174;-81
2022/08/19 14:31:40;;;;;;;65.60;43.20;;;18.70;96.30;;;;;;4973463;28;20249;-78
2022/08/19 14:34:06;;;;;;;76.13;42.07;;;18.70;96.30;;;;;;5013491;23;20312;-72
2022/08/19 14:36:34;;;;;;;64.80;42.63;;;18.70;96.30;;;;;;4975487;28;20504;-77
2022/08/19 14:39:00;;;;;;;72.50;41.40;;;18.70;96.30;;;;;;4987550;28;20239;-76
2022/08/19 14:41:26;;;;;;;57.03;42.73;;;18.60;96.30;;;;;;4979483;28;20409;-73
2022/08/19 14:43:53;;;;;;;62.80;44.17;;;18.60;96.30;;;;;;4962904;28;20426;-73
2022/08/19 14:46:22;;;;;;;62.13;42.40;;;18.60;96.30;;;;;;4954184;29;20410;-73
2022/08/19 14:48:48;;;;;;;54.50;40.87;;;18.60;96.30;;;;;;4953925;29;20481;-73
2022/08/19 14:51:14;;;;;;;54.80;40.30;;;18.60;96.30;;;;;;4965374;28;20414;-74
2022/08/19 14:53:41;;;;;;;52.53;41.27;;;18.60;96.30;;;;;;4973437;28;20441;-75
2022/08/19 14:56:11;;;;;;;54.40;39.13;;;18.60;96.30;;;;;;4973328;28;20175;-73
2022/08/19 14:58:37;;;;;;;51.00;39.50;;;18.60;96.30;;;;;;4973178;28;20420;-72
2022/08/19 15:01:03;;;;;;;51.97;39.67;;;18.60;96.30;;;;;;4972965;28;20776;-75
2022/08/19 15:03:29;;;;;;;48.97;38.83;;;18.60;96.30;;;;;;4972612;28;20190;-75
2022/08/19 15:05:56;;;;;;;54.93;38.73;;;18.60;96.30;;;;;;4972928;28;20423;-72
2022/08/19 15:08:24;;;;;;;59.93;41.40;;;18.60;96.30;;;;;;4960792;28;20214;-72
2022/08/19 15:10:50;;;;;;;65.87;42.10;;;18.60;96.30;;;;;;4953709;29;20494;-72
2022/08/19 15:13:16;;;;;;;55.50;41.13;;;18.60;96.30;;;;;;4953848;29;20450;-72
2022/08/19 15:15:41;;;;;;;57.40;42.17;;;18.60;96.30;;;;;;4953805;29;20449;-73
2022/08/19 15:18:07;;;;;;;60.57;41.10;;;18.60;96.30;;;;;;4953129;29;20194;-73
2022/08/19 15:20:32;;;;;;;52.30;38.47;;;18.60;96.30;;;;;;4953953;29;20183;-73
2022/08/19 15:23:01;;;;;;;51.53;39.67;;;18.70;96.30;;;;;;4953753;29;20672;-73
2022/08/19 15:25:26;;;;;;;51.13;36.90;;;18.80;96.30;;;;;;4953787;29;20194;-74
2022/08/19 15:27:52;;;;;;;51.23;35.80;;;18.90;96.30;;;;;;4953571;29;20938;-79
2022/08/19 15:30:24;;;;;;;42.63;34.80;;;18.90;96.30;;;;;;4953816;29;20516;-73
2022/08/19 15:32:50;;;;;;;41.07;33.20;;;19.00;96.30;;;;;;4953526;29;20183;-75
2022/08/19 15:35:18;;;;;;;45.03;34.83;;;19.00;96.30;;;;;;4953676;29;20398;-73
2022/08/19 15:37:44;;;;;;;45.40;35.70;;;19.10;96.30;;;;;;4953654;29;20178;-74
2022/08/19 15:40:10;;;;;;;46.47;38.13;;;19.10;96.30;;;;;;4956392;28;20414;-74
2022/08/19 15:42:37;;;;;;;50.97;36.13;;;19.00;96.30;;;;;;4960262;28;20431;-76
2022/08/19 15:45:08;;;;;;;48.43;37.30;;;19.00;96.30;;;;;;4953830;29;20171;-74
2022/08/19 15:47:35;;;;;;;48.73;36.00;;;19.00;96.30;;;;;;4953669;29;20901;-75
2022/08/19 15:50:05;;;;;;;46.80;37.40;;;19.00;96.30;;;;;;4953385;29;20417;-74
2022/08/19 15:52:31;;;;;;;51.87;37.07;;;19.00;96.30;;;;;;4953997;29;20438;-74
2022/08/19 15:54:56;;;;;;;44.77;35.87;;;18.90;96.30;;;;;;4953653;29;20491;-74
2022/08/19 16:08:04;;;;;;;55.40;39.67;;;18.90;96.30;;;;;;4954588;29;20465;-74
2022/08/19 16:10:30;;;;;;;52.73;38.13;;;18.90;96.30;;;;;;4954869;29;20538;-73
2022/08/19 16:12:57;;;;;;;49.60;38.87;;;18.80;96.30;;;;;;4938547;29;20472;-74
2022/08/19 16:15:26;;;;;;;53.27;40.23;;;18.80;96.30;;;;;;4938728;29;20414;-75
2022/08/19 16:17:53;;;;;;;55.87;41.90;;;18.80;96.30;;;;;;4940865;29;20425;-73
2022/08/19 16:20:20;;;;;;;52.97;42.60;;;18.80;96.30;;;;;;4958281;29;20425;-73
2022/08/19 16:22:47;;;;;;;55.90;42.33;;;18.70;96.30;;;;;;4940828;29;20454;-73
2022/08/19 16:25:13;;;;;;;59.10;42.93;;;18.70;96.30;;;;;;4957771;29;20477;-74
2022/08/19 16:27:40;;;;;;;51.77;42.07;;;18.60;96.30;;;;;;4958191;29;20462;-73
2022/08/19 16:30:06;;;;;;;53.20;40.43;;;18.50;96.30;;;;;;4957617;29;20418;-73
2022/08/19 16:32:33;;;;;;;55.80;40.33;;;18.50;96.30;;;;;;4957644;28;20535;-75
2022/08/19 16:34:58;;;;;;;57.37;39.53;;;18.50;96.30;;;;;;4960140;28;20524;-74
2022/08/19 16:37:24;;;;;;;48.83;38.73;;;18.50;96.30;;;;;;4966854;28;20513;-74
2022/08/19 16:39:50;;;;;;;54.27;40.20;;;18.50;96.30;;;;;;4967057;28;20177;-74
2022/08/19 16:42:15;;;;;;;56.20;40.80;;;18.50;96.30;;;;;;4968120;28;20174;-74
2022/08/19 16:44:44;;;;;;;52.27;38.43;;;18.50;96.30;;;;;;4947078;28;20258;-74
2022/08/19 16:47:11;;;;;;;46.43;39.50;;;18.50;96.30;;;;;;4958931;29;20206;-73
2022/08/19 16:49:37;;;;;;;54.23;39.33;;;18.50;96.30;;;;;;4941812;29;20914;-74
2022/08/19 16:52:04;;;;;;;56.47;42.47;;;18.50;96.30;;;;;;4962998;28;20425;-74
2022/08/19 16:54:30;;;;;;;52.47;40.43;;;18.50;96.30;;;;;;4977476;28;20190;-74
2022/08/19 16:56:56;;;;;;;50.77;40.20;;;18.50;96.30;;;;;;4960359;28;20436;-74
2022/08/19 16:59:23;;;;;;;60.80;42.97;;;18.50;96.30;;;;;;4977637;28;20182;-74
2022/08/19 17:01:48;;;;;;;56.50;42.07;;;18.50;96.30;;;;;;4977775;28;20178;-73
2022/08/19 17:04:14;;;;;;;53.00;42.13;;;18.50;96.30;;;;;;4959628;28;20445;-74
2022/08/19 17:06:39;;;;;;;58.97;42.77;;;18.50;96.30;;;;;;4977106;28;20174;-74